Time;durP1;ratioP1;P1;durP2;ratioP2;P2;SDS_P1;SDS_P2;PMS_P1;PMS_P2;Temp;Humidity;BMP_temperature;BMP_pressure;BME280_temperature;BME280_humidity;BME280_pressure;Samples;Min_cycle;Max_cycle;Signal;HPM_P1;HPM_P2
2022/07/30 00:06:24;;;;;;;;;;;;;;;27.63;42.53;100016.53;20535929;28;99207;-74
2022/07/30 00:16:24;;;;;;;;;;;;;;;27.42;42.91;100025.88;20520979;28;98769;-73
2022/07/30 00:26:24;;;;;;;;;;;;;;;27.22;43.70;100033.38;20532337;28;100988;-74
2022/07/30 00:36:25;;;;;;;;;;;;;;;27.08;43.66;100024.22;20533017;28;100698;-72
2022/07/30 00:46:25;;;;;;;;;;;;;;;27.08;44.04;100020.75;20545438;28;99228;-72
2022/07/30 00:56:26;;;;;;;;;;;;;;;26.94;44.23;100016.91;20544503;28;97825;-72
2022/07/30 01:06:26;;;;;;;;;;;;;;;26.86;44.43;100022.25;20566214;28;97651;-72
2022/07/30 01:16:26;;;;;;;;;;;;;;;26.82;44.68;100016.44;20569185;28;97890;-72
2022/07/30 01:26:27;;;;;;;;;;;;;;;26.75;44.86;100007.47;20569217;28;97845;-73
2022/07/30 01:36:28;;;;;;;;;;;;;;;26.63;44.90;100023.66;20553906;28;101202;-72
2022/07/30 01:46:29;;;;;;;;;;;;;;;26.65;44.95;100015.56;20521572;28;99082;-72
2022/07/30 01:56:30;;;;;;;;;;;;;;;26.68;44.85;100002.78;20525166;28;100712;-73
2022/07/30 02:06:37;;;;;;;;;;;;;;;26.71;44.91;99991.00;20517050;28;100769;-74
2022/07/30 02:16:39;;;;;;;;;;;;;;;26.76;45.12;99979.91;20517326;28;99294;-74
2022/07/30 02:26:40;;;;;;;;;;;;;;;26.54;45.47;99960.94;20532767;28;101461;-72
2022/07/30 02:36:43;;;;;;;;;;;;;;;26.81;45.08;99961.63;20522478;28;99174;-74
2022/07/30 02:46:44;;;;;;;;;;;;;;;26.70;45.12;99957.47;20522370;28;98804;-74
2022/07/30 02:56:49;;;;;;;;;;;;;;;26.61;45.17;99963.75;20515247;28;98031;-74
2022/07/30 03:06:50;;;;;;;;;;;;;;;26.68;44.82;99965.59;20506391;28;100738;-74
2022/07/30 03:16:54;;;;;;;;;;;;;;;26.80;44.70;99957.31;20545230;28;97757;-73
2022/07/30 03:26:55;;;;;;;;;;;;;;;26.90;44.51;99960.63;20552078;28;98732;-73
2022/07/30 03:36:56;;;;;;;;;;;;;;;26.99;44.11;99956.16;20551267;28;99621;-74
2022/07/30 03:46:56;;;;;;;;;;;;;;;27.02;43.92;99955.00;20531076;28;99143;-74
2022/07/30 03:56:59;;;;;;;;;;;;;;;27.08;43.98;99952.47;20515795;28;101314;-73
2022/07/30 04:07:00;;;;;;;;;;;;;;;27.10;43.85;99947.81;20514243;28;99934;-74
2022/07/30 04:17:02;;;;;;;;;;;;;;;27.11;44.23;99960.13;20530936;28;98018;-73
2022/07/30 04:27:02;;;;;;;;;;;;;;;27.10;44.42;99952.28;20549620;28;100928;-72
2022/07/30 04:37:03;;;;;;;;;;;;;;;27.14;44.50;99969.59;20546210;28;99275;-73
2022/07/30 04:47:03;;;;;;;;;;;;;;;27.12;44.65;99969.75;20540311;28;101433;-73
2022/07/30 04:57:05;;;;;;;;;;;;;;;27.15;44.67;99968.59;20540158;28;98221;-73
2022/07/30 05:07:06;;;;;;;;;;;;;;;27.14;44.68;99967.75;20539031;28;99999;-73
2022/07/30 05:17:06;;;;;;;;;;;;;;;27.16;44.60;99965.75;20549518;28;98393;-73
2022/07/30 05:27:06;;;;;;;;;;;;;;;27.13;45.06;99960.75;20552224;28;97738;-72
2022/07/30 05:37:07;;;;;;;;;;;;;;;26.88;46.34;99972.41;20534031;28;98899;-73
2022/07/30 05:47:07;;;;;;;;;;;;;;;26.74;46.67;99987.16;20542899;28;97950;-72
2022/07/30 05:57:07;;;;;;;;;;;;;;;26.72;46.73;99984.69;20559228;28;100755;-72
2022/07/30 06:07:08;;;;;;;;;;;;;;;26.83;46.71;99988.84;20554782;28;101033;-73
2022/07/30 06:17:08;;;;;;;;;;;;;;;26.91;45.79;99977.41;20554709;28;99020;-72
2022/07/30 06:27:08;;;;;;;;;;;;;;;26.98;45.76;99989.84;20501159;28;100667;-73
2022/07/30 06:37:08;;;;;;;;;;;;;;;26.88;46.15;99993.66;20532488;28;101123;-72
2022/07/30 06:47:09;;;;;;;;;;;;;;;26.90;46.86;100002.31;20518585;28;100835;-74
2022/07/30 06:57:09;;;;;;;;;;;;;;;27.00;46.46;100001.16;20535984;28;98694;-74
2022/07/30 07:07:09;;;;;;;;;;;;;;;27.11;46.97;99997.31;20552290;28;100836;-74
2022/07/30 07:17:10;;;;;;;;;;;;;;;27.16;46.85;99984.34;20556745;28;101288;-78
2022/07/30 07:27:10;;;;;;;;;;;;;;;27.22;46.42;99972.22;20558211;28;98731;-79
2022/07/30 07:37:12;;;;;;;;;;;;;;;27.08;46.56;99964.94;20550553;28;100753;-74
2022/07/30 07:47:18;;;;;;;;;;;;;;;27.12;47.08;99947.66;20565756;28;99868;-80
2022/07/30 07:57:19;;;;;;;;;;;;;;;27.19;46.48;99963.75;20572746;28;97942;-78
2022/07/30 08:07:19;;;;;;;;;;;;;;;27.26;46.54;100025.88;20583951;28;100753;-79
2022/07/30 08:17:20;;;;;;;;;;;;;;;27.31;45.85;100018.22;20576490;28;99998;-77
2022/07/30 08:27:20;;;;;;;;;;;;;;;27.33;45.26;99979.84;20569095;28;100741;-77
2022/07/30 08:37:20;;;;;;;;;;;;;;;27.37;45.08;100014.03;20591186;28;98635;-81
2022/07/30 08:47:24;;;;;;;;;;;;;;;27.40;45.22;100029.69;20582664;28;97489;-78
2022/07/30 08:57:25;;;;;;;;;;;;;;;27.43;45.26;100016.91;20579829;28;97400;-79
2022/07/30 09:07:25;;;;;;;;;;;;;;;27.45;45.50;100014.91;20588682;28;100465;-81
2022/07/30 09:17:26;;;;;;;;;;;;;;;27.49;45.28;100015.41;20574638;28;97971;-79
2022/07/30 09:27:42;;;;;;;;;;;;;;;27.49;44.64;99994.13;20584380;28;97891;-79
2022/07/30 09:37:42;;;;;;;;;;;;;;;27.50;44.68;100010.91;20606145;28;97321;-79
2022/07/30 09:47:44;;;;;;;;;;;;;;;27.49;44.55;100007.44;20585621;28;97045;-79
2022/07/30 09:57:55;;;;;;;;;;;;;;;27.49;44.87;100039.34;20603330;28;97941;-80
2022/07/30 10:07:58;;;;;;;;;;;;;;;27.46;46.86;100120.25;20599348;28;97232;-79
2022/07/30 10:17:58;;;;;;;;;;;;;;;27.46;47.63;100031.69;20597919;28;100856;-76
2022/07/30 10:27:59;;;;;;;;;;;;;;;27.45;48.10;100024.69;20591785;28;97583;-79
2022/07/30 10:38:00;;;;;;;;;;;;;;;27.45;48.58;100057.47;20593746;28;98448;-80
2022/07/30 10:48:04;;;;;;;;;;;;;;;27.44;48.96;100061.13;20601730;28;97120;-82
2022/07/30 10:58:08;;;;;;;;;;;;;;;27.45;49.11;100044.16;20590648;28;98169;-78
2022/07/30 11:08:27;;;;;;;;;;;;;;;27.45;49.29;100012.25;20594876;28;98522;-77
2022/07/30 11:18:28;;;;;;;;;;;;;;;27.47;49.43;99980.16;20588772;28;98591;-77
2022/07/30 11:28:32;;;;;;;;;;;;;;;27.46;52.86;99951.91;20566879;28;100322;-75
2022/07/30 11:38:52;;;;;;;;;;;;;;;26.81;55.77;99966.94;20580359;28;100471;-78
2022/07/30 11:48:58;;;;;;;;;;;;;;;26.55;57.38;99986.50;20566718;28;97952;-78
2022/07/30 11:59:08;;;;;;;;;;;;;;;26.23;57.30;99961.53;20563964;28;98052;-76
2022/07/30 12:09:08;;;;;;;;;;;;;;;26.11;60.84;99945.13;20574587;28;97599;-77
2022/07/30 12:19:08;;;;;;;;;;;;;;;26.26;57.89;99904.69;20578335;28;100436;-76
2022/07/30 12:29:12;;;;;;;;;;;;;;;26.56;56.63;99920.94;20579184;28;98026;-79
2022/07/30 12:39:17;;;;;;;;;;;;;;;26.62;55.45;99909.66;20579903;28;98012;-78
2022/07/30 12:49:18;;;;;;;;;;;;;;;26.55;56.37;99906.00;20581931;28;98081;-80
2022/07/30 12:59:20;;;;;;;;;;;;;;;26.56;55.36;99892.53;20593248;28;98348;-79
2022/07/30 13:09:22;;;;;;;;;;;;;;;26.59;52.92;99905.50;20581234;28;98283;-76
2022/07/30 13:19:22;;;;;;;;;;;;;;;26.63;51.64;99929.91;20599874;28;98296;-77
2022/07/30 13:29:23;;;;;;;;;;;;;;;26.91;50.09;99871.97;20619469;28;99577;-75
2022/07/30 13:39:23;;;;;;;;;;;;;;;26.98;49.92;99872.13;20600619;28;98976;-80
2022/07/30 13:49:23;;;;;;;;;;;;;;;26.79;48.59;99871.50;20604299;28;99323;-79
2022/07/30 13:59:24;;;;;;;;;;;;;;;26.48;49.60;99892.56;20614024;28;97949;-78
2022/07/30 14:09:24;;;;;;;;;;;;;;;26.48;49.55;99908.50;20614070;28;98377;-78
2022/07/30 14:19:29;;;;;;;;;;;;;;;26.43;49.66;99919.59;20628253;28;98050;-77
2022/07/30 14:29:29;;;;;;;;;;;;;;;26.26;50.30;99928.56;20588624;28;97792;-79
2022/07/30 14:39:29;;;;;;;;;;;;;;;26.11;50.17;99931.00;20584809;28;98408;-78
2022/07/30 14:49:29;;;;;;;;;;;;;;;25.68;50.55;99915.94;20583246;28;101129;-74
2022/07/30 14:59:30;;;;;;;;;;;;;;;25.93;49.71;99904.56;20584243;28;98317;-82
2022/07/30 15:09:32;;;;;;;;;;;;;;;26.05;49.77;99912.06;20571393;28;100359;-78
2022/07/30 15:19:32;;;;;;;;;;;;;;;26.18;49.90;99914.28;20577434;28;97822;-82
2022/07/30 15:29:32;;;;;;;;;;;;;;;26.21;49.36;99921.91;20583582;28;98350;-80
2022/07/30 15:39:33;;;;;;;;;;;;;;;26.34;49.01;99915.28;20595353;28;98338;-78
2022/07/30 15:49:34;;;;;;;;;;;;;;;26.32;48.65;99933.22;20572308;28;98363;-79
2022/07/30 15:59:34;;;;;;;;;;;;;;;26.93;46.81;99941.69;20563888;28;98131;-76
2022/07/30 16:09:34;;;;;;;;;;;;;;;26.64;46.90;99956.28;20564700;28;98635;-81
2022/07/30 16:19:35;;;;;;;;;;;;;;;26.35;46.91;99959.41;20573798;28;98743;-78
2022/07/30 16:29:39;;;;;;;;;;;;;;;26.44;47.01;99953.13;20582096;28;100779;-77
2022/07/30 16:39:42;;;;;;;;;;;;;;;26.51;47.24;99967.41;20578783;28;97738;-85
2022/07/30 16:49:43;;;;;;;;;;;;;;;26.48;46.85;99974.88;20583853;28;97807;-82
2022/07/30 16:59:43;;;;;;;;;;;;;;;26.46;47.51;99966.22;20586571;28;97668;-85
2022/07/30 17:09:43;;;;;;;;;;;;;;;26.41;47.10;99972.03;20586961;28;97793;-82
2022/07/30 17:19:44;;;;;;;;;;;;;;;26.39;45.72;99974.03;20580455;28;101050;-83
2022/07/30 17:29:44;;;;;;;;;;;;;;;26.27;45.35;99954.94;20573354;28;97918;-83
2022/07/30 17:39:44;;;;;;;;;;;;;;;25.96;46.41;99949.34;20589021;28;98263;-86
2022/07/30 17:49:45;;;;;;;;;;;;;;;25.84;47.63;99940.84;20597691;28;100945;-82
2022/07/30 17:59:56;;;;;;;;;;;;;;;25.66;47.64;99925.88;20604076;28;97751;-90
2022/07/30 18:10:02;;;;;;;;;;;;;;;25.46;48.23;99927.91;20591014;28;99480;-80
2022/07/30 18:20:04;;;;;;;;;;;;;;;25.36;48.50;99924.53;20618744;28;98313;-82
2022/07/30 18:30:04;;;;;;;;;;;;;;;25.17;49.73;99930.88;20586443;28;101423;-82
2022/07/30 18:40:06;;;;;;;;;;;;;;;25.09;50.11;99942.28;20592461;28;97838;-87
2022/07/30 18:50:09;;;;;;;;;;;;;;;25.14;50.68;99955.88;20591415;28;99202;-83
2022/07/30 19:00:11;;;;;;;;;;;;;;;25.22;50.25;99965.72;20561323;28;101175;-80
2022/07/30 19:10:12;;;;;;;;;;;;;;;25.10;48.96;99984.50;20577611;28;98699;-82
2022/07/30 19:20:12;;;;;;;;;;;;;;;25.03;48.96;99994.03;20559281;28;100604;-78
2022/07/30 19:30:12;;;;;;;;;;;;;;;25.05;48.51;99993.91;20583119;28;98367;-75
2022/07/30 19:40:13;;;;;;;;;;;;;;;24.96;48.22;99997.47;20585765;28;97951;-79
2022/07/30 19:50:13;;;;;;;;;;;;;;;24.87;47.93;99989.44;20570473;28;101086;-75
2022/07/30 20:00:14;;;;;;;;;;;;;;;24.80;48.17;99998.16;20574979;28;97732;-77
2022/07/30 20:10:14;;;;;;;;;;;;;;;24.73;48.15;99998.78;20556183;28;101247;-75
2022/07/30 20:20:15;;;;;;;;;;;;;;;24.68;48.57;99986.97;20561163;28;99733;-75
2022/07/30 20:30:15;;;;;;;;;;;;;;;24.64;48.79;99998.81;20554263;28;99522;-74
2022/07/30 20:40:15;;;;;;;;;;;;;;;24.58;48.88;99985.22;20568725;28;97869;-76
2022/07/30 20:50:16;;;;;;;;;;;;;;;24.47;49.37;99985.41;20565590;28;100769;-76
2022/07/30 21:00:17;;;;;;;;;;;;;;;24.39;49.57;99980.03;20551004;28;99262;-76
2022/07/30 21:10:18;;;;;;;;;;;;;;;24.35;49.38;99979.53;20553841;28;98615;-77
2022/07/30 21:20:19;;;;;;;;;;;;;;;24.28;50.16;99983.75;20561146;28;98755;-76
2022/07/30 21:30:20;;;;;;;;;;;;;;;24.19;50.57;99985.44;20575093;28;100862;-77
2022/07/30 21:40:20;;;;;;;;;;;;;;;24.16;50.78;99985.75;20569389;28;98138;-78
2022/07/30 21:50:22;;;;;;;;;;;;;;;24.13;51.17;99983.41;20569885;28;99270;-78
2022/07/30 22:00:43;;;;;;;;;;;;;;;24.03;51.87;99988.75;20567006;28;98320;-78
2022/07/30 22:10:45;;;;;;;;;;;;;;;24.01;52.61;99966.91;20567630;28;98798;-76
2022/07/30 22:20:45;;;;;;;;;;;;;;;23.86;53.49;99971.81;20560476;28;97678;-76
2022/07/30 22:30:46;;;;;;;;;;;;;;;23.79;53.84;99963.66;20545599;28;98108;-76
2022/07/30 22:40:46;;;;;;;;;;;;;;;23.71;54.01;99958.25;20560754;28;100113;-77
2022/07/30 22:50:46;;;;;;;;;;;;;;;23.61;54.04;99958.28;20546484;28;100758;-75
2022/07/30 23:00:46;;;;;;;;;;;;;;;23.58;53.96;99948.03;20547843;28;98177;-75
2022/07/30 23:10:47;;;;;;;;;;;;;;;23.48;53.82;99939.28;20548463;28;99709;-74
2022/07/30 23:20:47;;;;;;;;;;;;;;;23.35;54.01;99929.03;20524032;28;98259;-76
2022/07/30 23:30:47;;;;;;;;;;;;;;;23.41;53.48;99925.00;20526773;28;99077;-75
2022/07/30 23:40:48;;;;;;;;;;;;;;;23.37;52.67;99921.81;20556901;28;98594;-75
2022/07/30 23:50:48;;;;;;;;;;;;;;;23.24;53.17;99916.88;20553680;28;101661;-76
